New York, New York
Traffic Map
Current Weather Conditions
New York, New York
Overcast Haze
Overcast
71°
Feels Like: 71°
Wind Chill: 71° Ceiling: 800
Heat Index: 71° Visibility: 6mi
Dew Point: 67° Wind: 6mph
Humidity: 87% Direction: 160° (SSE)
Pressure: 29.99in Gusts: 0mph
Raw Report DataKNYC 281451Z AUTO 16005KT 6SM BR OVC008 22/19 A2999 RMK AO2 SLP147 T02170194 58003 $
Traffic Incident Summary
Active as of:
Severity:
Category:
InformationThere was an issue retrieving the traffic information for this location. Please try a different location or try again shortly.
Advertisements
Track Severe Weather on mobile